CheckWX is a tool to help pilots better visualize weather data.  It is not intended as a substitute for an official pre-flight weather briefing.

04:13:48 UTC

HTSO METAR
Songea Airport
Songea, Tanzania
Current

12 hours ago

HTSO 251600Z 15005KT 9999 BKN018 FEW018CB SCT070 21/16 Q1022
Observed
May-25 @ 16:00 UTC
Wind
  • 150° at 5 KTS
Visibility
10,000+ meters
Flight Rules
MVFR
Cloud Levels
  • Broken at 1,800' AGL
  • Few at 1,800' AGL
  • Scattered at 7,000' AGL
Temperature
21°C / 70°F
Dewpoint
16°C / 61°F
Humidity
73%
Altimeter
30.18" Hg
Pressure
1021.92 hPa